Denver International CA :: Atwood 200

liberation: 2021-09-11  06:27     latitude: 39.812612     longitude: -101.065549 160 birds
# LOFT PRING MILES ARRIVAL SPEED ToWin
1 Frank H CAC AU21-ARPU-18968 211.956 2021-09-11 12:05:33.215 1101.870 00:00:00
2 HNOS Valenzuela Loft AU21-FH-21523 211.999 2021-09-11 12:09:30.426 1089.376 00:03:53
3 HNOS Valenzuela Loft AU21-CHP-4196 211.999 2021-09-11 12:09:38.877 1088.928 00:04:01
4 HNOS Valenzuela Loft AU21-HPR-0133 211.999 2021-09-11 12:09:45.836 1088.560 00:04:08
5 HNOS Valenzuela Loft AU21-ARPU-110303 211.999 2021-09-11 12:10:44.428 1085.467 00:05:07
6 Pitita Loft AU21-FH-21406 213.575 2021-09-11 12:15:58.371 1077.138 00:07:50
7 Beto Loft AU21-FH-21496 210.742 2021-09-11 12:30:32.254 1020.271 00:26:55
8 Frank H CAC AU21-FH-21821 211.956 2021-09-11 12:37:28.788 1006.916 00:31:56
9 HNOS Valenzuela Loft AU21-FH-21865 211.999 2021-09-11 12:37:41.475 1006.549 00:32:04
10 Pitita Loft AU21-WIND-0335 213.575 2021-09-11 12:41:58.403 1002.450 00:33:50
11 Frank H CAC AU21-FRAN-0005 211.956 2021-09-11 12:47:56.096 979.280 00:42:23
12 Frank H CAC AU21-FRAN-0023 211.956 2021-09-11 12:54:10.362 963.503 00:48:37
13 Pitita Loft AU21-FH-21338 213.575 2021-09-11 12:58:57.469 959.011 00:50:49
14 HNOS Valenzuela Loft AU21-ARPU-110316 211.999 2021-09-11 13:00:40.664 947.778 00:55:03
15 Beto Loft AU21-FH-21562 210.742 2021-09-11 13:12:38.267 914.379 01:09:01
16 Pitita Loft AU21-FH-21390 213.575 2021-09-11 13:20:42.361 908.597 01:12:34
17 Mata Loft AU21-MATA-0164 206.351 2021-09-11 13:07:14.146 907.407 01:10:38
18 HNOS Valenzuela Loft AU21-FH-21516 211.999 2021-09-11 13:22:39.274 897.666 01:17:02
19 Pitita Loft AU21-FH-21333 213.575 2021-09-11 13:31:46.232 884.930 01:23:38
20 Frank H CAC AU21-AL-6040 211.956 2021-09-11 13:57:02.019 828.920 01:51:29
21 HNOS Valenzuela Loft AU21-FH-21589 211.999 2021-09-11 14:01:53.065 820.250 01:56:16
22 Pitita Loft AU21-FH-21425 213.575 2021-09-11 14:12:27.858 807.564 02:04:19
23 Mata Loft AU21-ESM-1386 206.351 2021-09-11 14:12:08.713 780.782 02:15:33
24 Pitita Loft AU21-FH-21397 213.575 2021-09-11 14:31:28.198 775.883 02:23:20
25 Frank H CAC AU21-AL-6024 211.956 2021-09-11 14:36:01.497 762.828 02:30:28
26 Pitita Loft AU21-FH-21441 213.575 2021-09-11 14:44:41.341 755.275 02:36:33
27 Nuevitas Loft AU21-ARPU-101705 201.399 2021-09-11 14:32:34.634 729.980 02:43:53
28 Frank H CAC AU21-HPR-0150 211.956 2021-09-11 15:22:51.561 696.156 03:17:18
29 Frank H CAC AU21-FSM-1341 211.956 2021-09-11 15:27:31.091 690.156 03:21:58
30 Frank H CAC AU21-FH-21834 211.956 2021-09-11 15:27:33.190 690.111 03:22:00
31 Pitita Loft AU21-FH-21424 213.575 2021-09-11 15:33:22.276 687.979 03:25:14
32 Beto Loft AU21-FH-21481 210.742 2021-09-11 16:03:18.350 643.594 03:59:41
33 HNOS Valenzuela Loft AU21-AA-32326 211.999 2021-09-11 16:32:57.610 615.748 04:27:20
34 Frank H CAC AU21-FH-21832 211.956 2021-09-11 17:09:12.255 580.877 05:03:39
35 Frank H CAC AU21-FH-21808 211.956 2021-09-11 17:14:23.806 576.218 05:08:51
36 Frank H CAC AU21-FRAN-0064 211.956 2021-09-11 17:16:17.383 574.538 05:10:44
37 Beto Loft AU21-FH-21566 210.742 2021-09-11 17:19:49.675 568.154 05:16:13
38 Pitita Loft AU21-FH-21395 213.575 2021-09-11 17:32:18.702 564.986 05:24:10
39 Mata Loft AU21-ZEPH-2163 206.351 2021-09-11 17:37:26.899 541.693 05:40:51
40 Frank H CAC AU21-FRAN-0042 211.956 2021-09-11 18:03:55.543 535.268 05:58:22
41 Mata Loft AU21-MATA-0148 206.351 2021-09-11 17:53:15.586 529.212 05:56:40
42 Beto Loft AU21-FH-21491 210.742 2021-09-11 18:25:51.492 515.966 06:22:15
43 Pitita Loft AU21-FH-21439 213.575 2021-09-11 18:45:36.231 508.922 06:37:28
44 Beto Loft AU21-FH-21473 210.742 2021-09-11 18:43:22.186 503.696 06:39:45
45 HNOS Valenzuela Loft AU21-ARPU-75954 211.999 2021-09-11 18:54:37.451 499.073 06:49:00
46 Pitita Loft AU21-FH-21393 213.575 2021-09-11 19:07:51.070 494.041 06:59:43
47 Beto Loft AU21-FH-21493 210.742 2021-09-11 18:59:39.535 492.795 06:56:03
48 HNOS Valenzuela Loft AU21-FH-21513 211.999 2021-09-11 19:14:31.323 486.135 07:08:54
49 Nuevitas Loft AU21-NAPL-0611 201.399 2021-09-11 18:44:29.692 480.629 06:55:48
50 Mata Loft AU21-MATA-0162 206.351 2021-09-11 19:03:07.426 480.314 07:06:31
51 Pitita Loft AU21-FH-21521 213.575 2021-09-12 07:45:36.910 420.000 09:13:50
52 Pitita Loft AU21-FH-21423 213.575 2021-09-12 07:51:00.493 417.484 09:19:14
53 Pitita Loft AU21-FH-21415 213.575 2021-09-12 07:52:21.435 416.859 09:20:35
54 HNOS Valenzuela Loft AU21-FH-21552 211.999 2021-09-12 07:49:24.110 415.145 09:20:09
55 Pitita Loft AU21-FH-21400 213.575 2021-09-12 08:02:33.123 412.199 09:30:47
56 HNOS Valenzuela Loft AU21-AA-32871 211.999 2021-09-12 08:01:51.588 409.469 09:32:36
57 HNOS Valenzuela Loft AU21-FH-21539 211.999 2021-09-12 08:02:37.179 409.128 09:33:22
58 HNOS Valenzuela Loft AU21-FH-21540 211.999 2021-09-12 08:09:41.327 405.981 09:40:26
59 Beto Loft AU21-FH-21479 210.742 2021-09-12 08:08:31.672 404.084 09:41:17
60 Mata Loft AU21-MATA-0131 206.351 2021-09-12 07:54:28.761 401.813 09:34:15
61 Beto Loft AU21-FH-21570 210.742 2021-09-12 08:16:21.156 400.669 09:49:06
62 Pitita Loft AU21-HPR-0127 213.575 2021-09-12 08:31:39.645 399.449 09:59:53
63 Pitita Loft AU21-FH-21412 213.575 2021-09-12 08:34:58.197 398.049 10:03:12
64 Beto Loft AU21-FH-21487 210.742 2021-09-12 08:25:21.556 396.808 09:58:07
65 Beto Loft AU21-FH-21454 210.742 2021-09-12 08:26:10.970 396.459 09:58:56
66 Pitita Loft AU21-FH-21447 213.575 2021-09-12 08:39:01.054 396.350 10:07:15
67 Pitita Loft AU21-FH-21436 213.575 2021-09-12 08:51:36.826 391.155 10:19:50
68 HNOS Valenzuela Loft AU21-FH-21568 211.999 2021-09-12 08:48:39.510 389.467 10:19:24
69 Nuevitas Loft AU21-ARPU-101706 201.399 2021-09-12 08:06:02.771 387.215 09:53:43
70 Beto Loft AU21-FH-21497 210.742 2021-09-12 08:52:13.326 385.723 10:24:58
71 Mata Loft AU21-MATA-0163 206.351 2021-09-12 08:35:54.402 384.203 10:15:40
72 Nuevitas Loft AU21-ARPU-101709 201.399 2021-09-12 08:20:10.754 381.328 10:07:51
73 Beto Loft AU21-FH-21478 210.742 2021-09-12 09:05:09.963 380.600 10:37:55
74 Nuevitas Loft AU21-ARPU-101720 201.399 2021-09-12 08:35:59.572 374.949 10:23:40
75 Nuevitas Loft AU21-ARPU-101714 201.399 2021-09-12 08:53:59.380 367.945 10:41:40
76 Nuevitas Loft AU21-ARPU-4988 201.399 2021-09-12 08:54:11.708 367.866 10:41:52
77 Beto Loft AU21-FH-21554 210.742 2021-09-12 09:47:25.379 364.782 11:20:10
78 HNOS Valenzuela Loft AU21-ESM-1330 211.999 2021-09-12 09:54:45.749 364.328 11:25:30
79 Nuevitas Loft AU21-ARPU-4968 201.399 2021-09-12 09:11:33.390 361.355 10:59:14
80 Mata Loft AU21-MATA-0156 206.351 2021-09-12 09:45:04.495 358.007 11:24:50
81 HNOS Valenzuela Loft AU21-FH-21569 211.999 2021-09-12 10:18:34.883 356.047 11:49:20
82 Mata Loft AU21-ESM-1373 206.351 2021-09-12 09:55:44.483 354.282 11:35:30
83 Nuevitas Loft AU21-NAPL-0625 201.399 2021-09-12 09:57:50.390 345.073 11:45:31
84 Nuevitas Loft AU21-ARPU-4985 201.399 2021-09-12 10:01:21.211 343.897 11:49:02
85 Nuevitas Loft AU21-NAPL-0612 201.399 2021-09-12 11:42:34.504 313.145 13:30:15
Beto Loft AU21-FH-21450 0 0000-00-00 00:00:00.000 0.000 00:00:00
Beto Loft AU21-FH-21457 0 0000-00-00 00:00:00.000 0.000 00:00:00
Beto Loft AU21-FH-21460 0 0000-00-00 00:00:00.000 0.000 00:00:00
Beto Loft AU21-FH-21461 0 0000-00-00 00:00:00.000 0.000 00:00:00
Beto Loft AU21-FH-21464 0 0000-00-00 00:00:00.000 0.000 00:00:00
Beto Loft AU21-FH-21469 0 0000-00-00 00:00:00.000 0.000 00:00:00
Beto Loft AU21-FH-21470 0 0000-00-00 00:00:00.000 0.000 00:00:00
Beto Loft AU21-FH-21471 0 0000-00-00 00:00:00.000 0.000 00:00:00
Beto Loft AU21-FH-21474 0 0000-00-00 00:00:00.000 0.000 00:00:00
Beto Loft AU21-FH-21482 0 0000-00-00 00:00:00.000 0.000 00:00:00
Beto Loft AU21-FH-21483 0 0000-00-00 00:00:00.000 0.000 00:00:00
Beto Loft AU21-FH-21492 0 0000-00-00 00:00:00.000 0.000 00:00:00
Beto Loft AU21-FH-21494 0 0000-00-00 00:00:00.000 0.000 00:00:00
Beto Loft AU21-FH-21559 0 0000-00-00 00:00:00.000 0.000 00:00:00
Frank H CAC AU21-AL-6033 0 0000-00-00 00:00:00.000 0.000 00:00:00
Frank H CAC AU21-AL-6034 0 0000-00-00 00:00:00.000 0.000 00:00:00
Frank H CAC AU21-CHP-4195 0 0000-00-00 00:00:00.000 0.000 00:00:00
Frank H CAC AU21-FH-21803 0 0000-00-00 00:00:00.000 0.000 00:00:00
Frank H CAC AU21-FH-21814 0 0000-00-00 00:00:00.000 0.000 00:00:00
Frank H CAC AU21-FH-21817 0 0000-00-00 00:00:00.000 0.000 00:00:00
Frank H CAC AU21-FH-21825 0 0000-00-00 00:00:00.000 0.000 00:00:00
Frank H CAC AU21-FH-21833 0 0000-00-00 00:00:00.000 0.000 00:00:00
Frank H CAC AU21-FH-21837 0 0000-00-00 00:00:00.000 0.000 00:00:00
Frank H CAC AU21-FRAN-0011 0 0000-00-00 00:00:00.000 0.000 00:00:00
Frank H CAC AU21-FRAN-0024 0 0000-00-00 00:00:00.000 0.000 00:00:00
Frank H CAC AU21-FRAN-0025 0 0000-00-00 00:00:00.000 0.000 00:00:00
Frank H CAC AU21-FRAN-0046 0 0000-00-00 00:00:00.000 0.000 00:00:00
Frank H CAC AU21-FRAN-0051 0 0000-00-00 00:00:00.000 0.000 00:00:00
Frank H CAC AU21-FRAN-0054 0 0000-00-00 00:00:00.000 0.000 00:00:00
Frank H CAC AU21-FRAN-0067 0 0000-00-00 00:00:00.000 0.000 00:00:00
Frank H CAC AU21-FRAN-0068 0 0000-00-00 00:00:00.000 0.000 00:00:00
Frank H CAC AU21-FRAN-0100 0 0000-00-00 00:00:00.000 0.000 00:00:00
Frank H CAC AU21-HPR-0113 0 0000-00-00 00:00:00.000 0.000 00:00:00
HNOS Valenzuela Loft AU21-AA-32322 0 0000-00-00 00:00:00.000 0.000 00:00:00
HNOS Valenzuela Loft AU21-AA-32329 0 0000-00-00 00:00:00.000 0.000 00:00:00
HNOS Valenzuela Loft AU21-ESM-1307 0 0000-00-00 00:00:00.000 0.000 00:00:00
HNOS Valenzuela Loft AU21-FH-21501 0 0000-00-00 00:00:00.000 0.000 00:00:00
HNOS Valenzuela Loft AU21-FH-21524 0 0000-00-00 00:00:00.000 0.000 00:00:00
HNOS Valenzuela Loft AU21-FH-21529 0 0000-00-00 00:00:00.000 0.000 00:00:00
HNOS Valenzuela Loft AU21-FH-21583 0 0000-00-00 00:00:00.000 0.000 00:00:00
HNOS Valenzuela Loft AU21-ZEPH-2185 0 0000-00-00 00:00:00.000 0.000 00:00:00
HNOS Valenzuela Loft AU21-ZEPH-2189 0 0000-00-00 00:00:00.000 0.000 00:00:00
Mata Loft AU21-ARPU-10625 0 0000-00-00 00:00:00.000 0.000 00:00:00
Mata Loft AU21-ESM-1382 0 0000-00-00 00:00:00.000 0.000 00:00:00
Mata Loft AU21-MATA-0104 0 0000-00-00 00:00:00.000 0.000 00:00:00
Mata Loft AU21-MATA-0109 0 0000-00-00 00:00:00.000 0.000 00:00:00
Mata Loft AU21-MATA-0111 0 0000-00-00 00:00:00.000 0.000 00:00:00
Mata Loft AU21-MATA-0124 0 0000-00-00 00:00:00.000 0.000 00:00:00
Mata Loft AU21-MATA-0161 0 0000-00-00 00:00:00.000 0.000 00:00:00
Mata Loft AU21-MATA-0170 0 0000-00-00 00:00:00.000 0.000 00:00:00
Nuevitas Loft AU21-ARPU-4924 0 0000-00-00 00:00:00.000 0.000 00:00:00
Nuevitas Loft AU21-ARPU-4931 0 0000-00-00 00:00:00.000 0.000 00:00:00
Nuevitas Loft AU21-NAPL-0631 0 0000-00-00 00:00:00.000 0.000 00:00:00
Pitita Loft AU21-FH-21394 0 0000-00-00 00:00:00.000 0.000 00:00:00
Pitita Loft AU21-FH-21414 0 0000-00-00 00:00:00.000 0.000 00:00:00
Pitita Loft AU21-FH-21416 0 0000-00-00 00:00:00.000 0.000 00:00:00
Pitita Loft AU21-FH-21433 0 0000-00-00 00:00:00.000 0.000 00:00:00
Pitita Loft AU21-FH-21440 0 0000-00-00 00:00:00.000 0.000 00:00:00
Pitita Loft AU21-FH-21488 0 0000-00-00 00:00:00.000 0.000 00:00:00
Pitita Loft AU21-HPR-0137 0 0000-00-00 00:00:00.000 0.000 00:00:00
Silver Dollar Loft AU21-SILV-0004 0 0000-00-00 00:00:00.000 0.000 00:00:00
Silver Dollar Loft AU21-SILV-0016 0 0000-00-00 00:00:00.000 0.000 00:00:00
Silver Dollar Loft AU21-SILV-0039 0 0000-00-00 00:00:00.000 0.000 00:00:00
Silver Dollar Loft AU21-SILV-0040 0 0000-00-00 00:00:00.000 0.000 00:00:00
Silver Dollar Loft AU21-SILV-0041 0 0000-00-00 00:00:00.000 0.000 00:00:00
Silver Dollar Loft AU21-SILV-0043 0 0000-00-00 00:00:00.000 0.000 00:00:00
Silver Dollar Loft AU21-SILV-0047 0 0000-00-00 00:00:00.000 0.000 00:00:00
Silver Dollar Loft AU21-SILV-0048 0 0000-00-00 00:00:00.000 0.000 00:00:00
Silver Dollar Loft AU21-SILV-0051 0 0000-00-00 00:00:00.000 0.000 00:00:00
Silver Dollar Loft AU21-SILV-0052 0 0000-00-00 00:00:00.000 0.000 00:00:00
Silver Dollar Loft AU21-SILV-0054 0 0000-00-00 00:00:00.000 0.000 00:00:00
Silver Dollar Loft AU21-SILV-0058 0 0000-00-00 00:00:00.000 0.000 00:00:00
Silver Dollar Loft AU21-SILV-0063 0 0000-00-00 00:00:00.000 0.000 00:00:00
Silver Dollar Loft AU21-SILV-0064 0 0000-00-00 00:00:00.000 0.000 00:00:00
Silver Dollar Loft AU21-SILV-0121 0 0000-00-00 00:00:00.000 0.000 00:00:00